Time;durP1;ratioP1;P1;durP2;ratioP2;P2;SDS_P1;SDS_P2;PMS_P1;PMS_P2;Temp;Humidity;BMP_temperature;BMP_pressure;BME280_temperature;BME280_humidity;BME280_pressure;Samples;Min_cycle;Max_cycle;Signal;HPM_P1;HPM_P2
2023/05/23 05:28:44;;;;;;;;;;;;;;;19.07;72.85;96826.44;4238599;27;10306;-66
2023/05/23 05:30:47;;;;;;;;;;;;;;;19.38;72.49;96833.03;4243773;27;5092;-67
2023/05/23 05:32:50;;;;;;;;;;;;;;;19.62;71.89;96833.66;4236626;27;5874;-66
2023/05/23 05:34:53;;;;;;;;;;;;;;;19.83;71.23;96832.03;4240235;27;5722;-66
2023/05/23 05:36:56;;;;;;;;;;;;;;;19.99;71.07;96825.75;4242754;27;6585;-66
2023/05/23 05:38:59;;;;;;;;;;;;;;;20.11;70.78;96829.09;4237945;27;6041;-67
2023/05/23 05:41:01;;;;;;;;;;;;;;;20.21;70.34;96829.22;4238144;27;6444;-66
2023/05/23 05:43:05;;;;;;;;;;;;;;;20.32;70.28;96824.75;4244054;27;5904;-66
2023/05/23 05:45:11;;;;;;;;;;;;;;;20.41;70.20;96828.59;4246265;27;5870;-66
2023/05/23 05:47:14;;;;;;;;;;;;;;;20.48;69.55;96837.28;4235111;27;6409;-66
2023/05/23 05:49:17;;;;;;;;;;;;;;;20.54;69.64;96830.91;4223410;27;5699;-67
2023/05/23 05:51:20;;;;;;;;;;;;;;;20.58;69.25;96837.38;4245670;27;5622;-67
2023/05/23 05:53:23;;;;;;;;;;;;;;;20.66;69.30;96836.09;4242370;27;5808;-67
2023/05/23 05:55:26;;;;;;;;;;;;;;;20.74;69.04;96835.63;4248391;27;5815;-67
2023/05/23 05:57:29;;;;;;;;;;;;;;;20.83;68.93;96833.25;4248763;27;5669;-67
2023/05/23 05:59:32;;;;;;;;;;;;;;;20.90;68.74;96829.28;4245417;27;5828;-76
2023/05/23 06:01:36;;;;;;;;;;;;;;;20.96;68.41;96824.78;4243020;27;5643;-75
2023/05/23 06:03:40;;;;;;;;;;;;;;;21.05;68.18;96827.78;4246313;27;5605;-76
2023/05/23 06:05:43;;;;;;;;;;;;;;;21.15;67.66;96835.91;4230604;28;5629;-77
2023/05/23 06:07:48;;;;;;;;;;;;;;;21.24;67.74;96831.66;4236410;27;5753;-77
2023/05/23 06:09:55;;;;;;;;;;;;;;;21.33;67.41;96823.97;4242956;27;5694;-76
2023/05/23 06:11:58;;;;;;;;;;;;;;;21.37;67.02;96822.34;4237302;27;6434;-76
2023/05/23 06:14:01;;;;;;;;;;;;;;;21.40;66.96;96827.22;4248272;27;5648;-76
2023/05/23 06:16:05;;;;;;;;;;;;;;;21.49;66.89;96829.16;4247658;27;5669;-77
2023/05/23 06:18:10;;;;;;;;;;;;;;;21.56;66.46;96822.72;4236347;27;5655;-77
2023/05/23 06:20:13;;;;;;;;;;;;;;;21.60;66.46;96823.81;4248462;27;5638;-70
2023/05/23 06:22:16;;;;;;;;;;;;;;;21.63;65.98;96821.44;4247625;27;7680;-69
2023/05/23 06:24:19;;;;;;;;;;;;;;;21.68;65.74;96820.63;4246393;27;6001;-72
2023/05/23 06:26:22;;;;;;;;;;;;;;;21.74;66.04;96824.94;4236633;27;6340;-69
2023/05/23 06:28:26;;;;;;;;;;;;;;;21.78;65.49;96820.66;4243072;27;5655;-72
2023/05/23 06:30:29;;;;;;;;;;;;;;;21.80;65.31;96815.81;4232670;27;5798;-74
2023/05/23 06:32:32;;;;;;;;;;;;;;;21.82;65.12;96816.38;4235287;28;5735;-76
2023/05/23 06:34:37;;;;;;;;;;;;;;;21.85;65.31;96818.53;4235763;28;5659;-69
2023/05/23 06:36:40;;;;;;;;;;;;;;;21.90;65.14;96821.25;4225675;27;5609;-68
2023/05/23 06:38:43;;;;;;;;;;;;;;;21.92;64.77;96821.78;4227949;28;5738;-68
2023/05/23 06:40:46;;;;;;;;;;;;;;;21.92;64.20;96816.41;4243110;27;5607;-68
2023/05/23 06:42:49;;;;;;;;;;;;;;;21.95;64.25;96821.25;4253616;27;5699;-68
2023/05/23 06:44:52;;;;;;;;;;;;;;;21.99;63.97;96822.34;4251363;27;5703;-68
2023/05/23 06:46:56;;;;;;;;;;;;;;;22.03;64.10;96818.06;4232660;28;5691;-68
2023/05/23 06:48:59;;;;;;;;;;;;;;;22.06;63.55;96817.53;4219537;28;5786;-68
2023/05/23 06:51:17;;;;;;;;;;;;;;;22.08;63.74;96814.59;4231878;28;5659;-68
2023/05/23 06:53:20;;;;;;;;;;;;;;;22.08;63.36;96820.81;4235558;28;6871;-69
2023/05/23 06:55:24;;;;;;;;;;;;;;;22.10;63.13;96820.53;4233819;28;5676;-67
2023/05/23 06:57:27;;;;;;;;;;;;;;;22.08;63.21;96820.81;4228064;28;5088;-68
2023/05/23 06:59:30;;;;;;;;;;;;;;;22.08;63.10;96825.34;4235682;28;5708;-67
2023/05/23 07:01:35;;;;;;;;;;;;;;;22.04;62.99;96821.56;4234189;28;5663;-68
2023/05/23 07:03:40;;;;;;;;;;;;;;;22.02;62.72;96821.81;4222978;28;5621;-67
2023/05/23 07:05:43;;;;;;;;;;;;;;;22.01;62.72;96822.91;4227837;28;5123;-68
2023/05/23 07:07:47;;;;;;;;;;;;;;;22.02;62.15;96827.19;4226342;28;5958;-67
2023/05/23 07:09:51;;;;;;;;;;;;;;;22.01;62.34;96824.78;4235989;27;5747;-68
2023/05/23 07:11:54;;;;;;;;;;;;;;;21.99;62.36;96822.34;4234889;28;5673;-68
2023/05/23 07:13:59;;;;;;;;;;;;;;;21.99;61.88;96827.75;4235282;28;5812;-68
2023/05/23 07:16:02;;;;;;;;;;;;;;;21.97;61.58;96819.13;4232789;28;7826;-68
2023/05/23 07:18:05;;;;;;;;;;;;;;;21.98;61.71;96828.81;4229594;28;5804;-68
2023/05/23 07:20:09;;;;;;;;;;;;;;;21.97;61.43;96820.97;4221098;28;5768;-68
2023/05/23 07:22:12;;;;;;;;;;;;;;;21.97;61.48;96823.66;4218094;28;5743;-68
2023/05/23 07:24:16;;;;;;;;;;;;;;;21.96;61.32;96816.66;4229933;28;5668;-67
2023/05/23 07:26:19;;;;;;;;;;;;;;;21.95;61.36;96825.81;4235430;27;5622;-69
2023/05/23 07:28:22;;;;;;;;;;;;;;;21.94;61.45;96834.97;4226633;28;5644;-68
2023/05/23 07:30:25;;;;;;;;;;;;;;;21.94;61.17;96832.28;4223571;28;6342;-68
2023/05/23 07:32:28;;;;;;;;;;;;;;;21.96;61.07;96832.81;4218642;28;5653;-67
2023/05/23 07:34:31;;;;;;;;;;;;;;;21.94;61.09;96822.31;4218354;28;5789;-68
2023/05/23 07:36:36;;;;;;;;;;;;;;;21.94;61.04;96824.22;4226086;28;5806;-68
2023/05/23 07:38:41;;;;;;;;;;;;;;;21.91;60.91;96822.88;4232158;27;5593;-68
2023/05/23 07:40:46;;;;;;;;;;;;;;;21.91;60.68;96824.75;4231227;28;5606;-68
2023/05/23 07:43:08;;;;;;;;;;;;;;;21.89;60.56;96822.31;4235442;28;5609;-68
2023/05/23 07:45:12;;;;;;;;;;;;;;;21.88;60.54;96820.72;4223292;28;5772;-68
2023/05/23 07:47:18;;;;;;;;;;;;;;;21.86;60.26;96814.78;4223232;28;5855;-68
2023/05/23 07:49:21;;;;;;;;;;;;;;;21.87;60.58;96812.91;4232935;28;5728;-68
2023/05/23 07:51:24;;;;;;;;;;;;;;;21.88;60.12;96822.59;4230315;28;5756;-68
2023/05/23 07:53:27;;;;;;;;;;;;;;;21.86;59.90;96812.09;4234085;28;5636;-68
2023/05/23 07:55:30;;;;;;;;;;;;;;;21.85;60.10;96813.13;4220351;28;5620;-68
2023/05/23 07:57:34;;;;;;;;;;;;;;;21.82;60.20;96810.97;4220541;28;5792;-67
2023/05/23 07:59:38;;;;;;;;;;;;;;;21.83;59.79;96812.59;4231413;28;5598;-67
2023/05/23 08:01:58;;;;;;;;;;;;;;;21.89;59.53;96816.94;4231549;27;5647;-67
2023/05/23 08:04:02;;;;;;;;;;;;;;;21.93;59.86;96814.53;4232288;28;5689;-69
2023/05/23 08:06:06;;;;;;;;;;;;;;;21.99;59.36;96816.16;4229891;28;5648;-67
2023/05/23 08:08:09;;;;;;;;;;;;;;;22.03;59.44;96823.44;4234550;28;5665;-67
2023/05/23 08:10:12;;;;;;;;;;;;;;;22.03;59.59;96818.06;4232369;28;5689;-67
2023/05/23 08:12:15;;;;;;;;;;;;;;;22.02;59.40;96805.66;4230985;28;5602;-67
2023/05/23 08:14:20;;;;;;;;;;;;;;;22.04;59.52;96808.09;4234453;28;5714;-68
2023/05/23 08:16:24;;;;;;;;;;;;;;;22.05;58.80;96815.91;4233110;27;5655;-67
2023/05/23 08:18:29;;;;;;;;;;;;;;;22.03;58.97;96815.34;4233206;28;5697;-67
2023/05/23 08:20:33;;;;;;;;;;;;;;;22.01;59.03;96809.44;4229678;28;5740;-67
2023/05/23 08:22:36;;;;;;;;;;;;;;;22.03;58.82;96812.66;4227309;28;5771;-67
2023/05/23 08:24:39;;;;;;;;;;;;;;;22.05;58.83;96815.09;4229682;28;5661;-68
2023/05/23 08:26:42;;;;;;;;;;;;;;;22.04;58.87;96803.50;4216758;28;5758;-68
2023/05/23 08:28:46;;;;;;;;;;;;;;;22.04;58.71;96806.22;4232638;28;5605;-68
2023/05/23 08:30:50;;;;;;;;;;;;;;;22.05;58.68;96805.13;4233739;28;5634;-67
2023/05/23 08:32:54;;;;;;;;;;;;;;;22.03;58.67;96807.28;4234111;28;5613;-68
2023/05/23 08:34:57;;;;;;;;;;;;;;;22.02;58.47;96808.34;4234195;28;5667;-68
2023/05/23 08:37:01;;;;;;;;;;;;;;;22.02;58.45;96811.06;4232584;28;5598;-68
2023/05/23 08:39:04;;;;;;;;;;;;;;;22.02;58.75;96805.66;4233951;28;5685;-68
2023/05/23 08:41:16;;;;;;;;;;;;;;;22.03;58.90;96818.06;4233030;28;5749;-68
2023/05/23 08:43:19;;;;;;;;;;;;;;;22.06;58.57;96812.16;4234371;28;5590;-68
2023/05/23 08:45:22;;;;;;;;;;;;;;;22.07;58.19;96808.38;4234305;28;5665;-68
2023/05/23 08:47:28;;;;;;;;;;;;;;;22.09;58.33;96813.53;4233831;28;5651;-68
2023/05/23 08:49:32;;;;;;;;;;;;;;;22.12;58.11;96814.88;4233645;28;5659;-68
2023/05/23 08:51:37;;;;;;;;;;;;;;;22.15;58.39;96814.34;4233102;27;6272;-68
2023/05/23 08:53:43;;;;;;;;;;;;;;;22.17;57.93;96806.81;4228248;28;5647;-68
2023/05/23 08:55:46;;;;;;;;;;;;;;;22.17;58.03;96810.31;4233919;28;5598;-67
2023/05/23 08:57:51;;;;;;;;;;;;;;;22.16;57.88;96802.50;4234024;27;5647;-67
2023/05/23 08:59:55;;;;;;;;;;;;;;;22.19;58.05;96804.66;4231927;28;5601;-67
2023/05/23 09:02:00;;;;;;;;;;;;;;;22.23;57.72;96805.75;4217043;28;5875;-67
2023/05/23 09:04:06;;;;;;;;;;;;;;;22.31;57.55;96814.13;4225201;28;5603;-67
2023/05/23 09:06:10;;;;;;;;;;;;;;;22.39;57.25;96810.06;4216016;28;5632;-67
2023/05/23 09:08:14;;;;;;;;;;;;;;;22.45;57.58;96814.41;4225985;28;5697;-67
2023/05/23 09:10:19;;;;;;;;;;;;;;;22.50;57.31;96800.09;4226169;28;5629;-67
2023/05/23 09:12:22;;;;;;;;;;;;;;;22.50;57.08;96800.91;4221126;28;5707;-67
2023/05/23 09:14:25;;;;;;;;;;;;;;;22.52;57.45;96798.75;4217459;28;5616;-67
2023/05/23 09:16:33;;;;;;;;;;;;;;;22.53;56.88;96794.97;4217174;28;5791;-67
2023/05/23 09:18:39;;;;;;;;;;;;;;;22.51;57.01;96797.13;4224779;28;5656;-67
2023/05/23 09:20:45;;;;;;;;;;;;;;;22.46;56.84;96797.16;4233033;28;5606;-67
2023/05/23 09:22:48;;;;;;;;;;;;;;;22.45;56.80;96792.84;4232807;28;5605;-68
2023/05/23 09:24:52;;;;;;;;;;;;;;;22.43;56.70;96792.31;4233299;27;5602;-67
2023/05/23 09:26:55;;;;;;;;;;;;;;;22.39;56.94;96785.81;4231934;28;5803;-66
2023/05/23 09:28:59;;;;;;;;;;;;;;;22.40;56.88;96784.75;4233722;28;5194;-66
2023/05/23 09:31:03;;;;;;;;;;;;;;;22.38;57.11;96784.22;4232811;27;5831;-67
2023/05/23 09:33:06;;;;;;;;;;;;;;;22.39;56.89;96780.44;4232214;28;5660;-67
2023/05/23 09:35:12;;;;;;;;;;;;;;;22.41;56.78;96775.59;4233290;28;5659;-67
2023/05/23 09:37:18;;;;;;;;;;;;;;;22.45;56.73;96765.91;4230094;28;5735;-67
2023/05/23 09:39:21;;;;;;;;;;;;;;;22.49;56.56;96771.56;4228975;28;5598;-67
2023/05/23 09:41:25;;;;;;;;;;;;;;;22.49;56.85;96769.66;4231759;28;5659;-67
2023/05/23 09:43:30;;;;;;;;;;;;;;;22.46;56.45;96772.09;4226609;28;5748;-67
2023/05/23 09:45:35;;;;;;;;;;;;;;;22.44;56.63;96766.19;4204706;28;5802;-67
2023/05/23 09:47:38;;;;;;;;;;;;;;;22.42;56.64;96762.91;4216681;28;5780;-67
2023/05/23 09:49:43;;;;;;;;;;;;;;;22.40;56.43;96768.59;4224071;28;5713;-68
2023/05/23 09:51:57;;;;;;;;;;;;;;;22.38;56.63;96765.34;4233926;28;5647;-67
2023/05/23 09:54:02;;;;;;;;;;;;;;;22.36;56.72;96768.31;4219818;28;5819;-68
2023/05/23 09:56:06;;;;;;;;;;;;;;;22.38;56.11;96768.06;4233700;28;5792;-69
2023/05/23 09:58:09;;;;;;;;;;;;;;;22.39;56.08;96769.66;4233768;28;6373;-67
2023/05/23 10:00:14;;;;;;;;;;;;;;;22.37;56.24;96767.25;4225032;27;5762;-67
2023/05/23 10:02:37;;;;;;;;;;;;;;;22.37;56.43;96766.44;4225031;28;5594;-67
2023/05/23 10:04:41;;;;;;;;;;;;;;;22.35;56.00;96755.94;4235678;28;5652;-68
2023/05/23 10:06:52;;;;;;;;;;;;;;;22.32;55.98;96751.09;4236074;28;5590;-68
2023/05/23 10:08:59;;;;;;;;;;;;;;;22.30;56.46;96760.50;4227606;28;5613;-68
2023/05/23 10:11:40;;;;;;;;;;;;;;;22.33;56.47;96757.28;4228483;28;5359;-68
2023/05/23 10:13:46;;;;;;;;;;;;;;;22.38;56.37;96754.59;4236069;28;5993;-68
2023/05/23 10:15:49;;;;;;;;;;;;;;;22.42;56.08;96747.56;4226087;28;5752;-68
2023/05/23 10:18:01;;;;;;;;;;;;;;;22.47;56.06;96747.59;4232667;28;5890;-68
2023/05/23 10:20:11;;;;;;;;;;;;;;;22.48;55.85;96741.13;4223232;28;7699;-68
2023/05/23 10:22:15;;;;;;;;;;;;;;;22.52;55.79;96744.88;4232211;28;5610;-68
2023/05/23 10:24:19;;;;;;;;;;;;;;;22.55;55.72;96744.34;4235740;28;5692;-68
2023/05/23 10:26:22;;;;;;;;;;;;;;;22.59;56.10;96739.22;4232235;28;5690;-67
2023/05/23 10:28:26;;;;;;;;;;;;;;;22.60;56.17;96749.72;4230529;28;5605;-68
2023/05/23 10:30:34;;;;;;;;;;;;;;;22.60;55.98;96747.03;4234147;28;5285;-68
2023/05/23 10:32:39;;;;;;;;;;;;;;;22.62;55.90;96736.78;4235272;28;5724;-68
2023/05/23 10:34:51;;;;;;;;;;;;;;;22.63;56.10;96738.41;4232485;28;5831;-68
2023/05/23 10:37:00;;;;;;;;;;;;;;;22.63;55.87;96730.31;4233252;28;5724;-68
2023/05/23 10:39:09;;;;;;;;;;;;;;;22.67;56.03;96730.59;4230909;28;5724;-69
2023/05/23 10:41:18;;;;;;;;;;;;;;;22.70;55.94;96734.63;4235595;28;6472;-68
2023/05/23 10:43:29;;;;;;;;;;;;;;;22.72;55.57;96730.59;4235944;28;5594;-68
2023/05/23 10:45:41;;;;;;;;;;;;;;;22.73;55.83;96728.69;4236136;28;5691;-69
2023/05/23 10:47:44;;;;;;;;;;;;;;;22.72;56.19;96727.88;4223821;28;5624;-67
2023/05/23 10:49:53;;;;;;;;;;;;;;;22.73;56.23;96734.09;4222746;28;5708;-67
2023/05/23 10:51:56;;;;;;;;;;;;;;;22.74;55.86;96724.91;4228920;27;5751;-68
2023/05/23 10:53:59;;;;;;;;;;;;;;;22.76;55.80;96728.94;4231047;28;6275;-67
2023/05/23 10:56:04;;;;;;;;;;;;;;;22.77;55.96;96735.97;4236453;28;5915;-67
2023/05/23 10:58:12;;;;;;;;;;;;;;;22.76;55.69;96723.56;4236244;28;7647;-68
2023/05/23 11:00:16;;;;;;;;;;;;;;;22.78;55.62;96728.72;4236183;28;5080;-67
2023/05/23 11:02:27;;;;;;;;;;;;;;;22.77;55.80;96725.19;4236223;28;5651;-68
2023/05/23 11:04:31;;;;;;;;;;;;;;;22.80;55.66;96718.44;4236159;28;5647;-67
2023/05/23 11:06:40;;;;;;;;;;;;;;;22.85;55.57;96726.53;4235836;28;5783;-67
2023/05/23 11:08:44;;;;;;;;;;;;;;;22.90;55.49;96723.84;4234191;27;5627;-68
2023/05/23 11:10:56;;;;;;;;;;;;;;;22.90;55.92;96727.34;4227834;28;5613;-67
2023/05/23 11:13:07;;;;;;;;;;;;;;;22.90;55.91;96723.84;4229992;28;6287;-68
2023/05/23 11:15:20;;;;;;;;;;;;;;;22.95;55.84;96713.03;4225322;28;5842;-67
2023/05/23 11:17:34;;;;;;;;;;;;;;;22.95;55.34;96726.53;4246011;27;5595;-68
2023/05/23 11:19:39;;;;;;;;;;;;;;;22.98;55.51;96722.47;4252719;27;5595;-68
2023/05/23 11:21:44;;;;;;;;;;;;;;;23.03;55.43;96722.47;4248560;27;5634;-69
2023/05/23 11:23:47;;;;;;;;;;;;;;;23.05;55.46;96721.09;4234903;28;6301;-69
2023/05/23 11:25:54;;;;;;;;;;;;;;;23.13;55.48;96708.97;4221753;28;5606;-69
2023/05/23 11:27:57;;;;;;;;;;;;;;;23.19;54.75;96711.34;4229268;28;5824;-69
2023/05/23 11:30:06;;;;;;;;;;;;;;;23.28;54.67;96713.47;4233009;28;5760;-68
2023/05/23 11:32:11;;;;;;;;;;;;;;;23.34;54.61;96715.91;4229748;28;5598;-68
2023/05/23 11:34:20;;;;;;;;;;;;;;;23.40;54.58;96719.38;4226900;28;5602;-68
2023/05/23 11:36:23;;;;;;;;;;;;;;;23.43;54.61;96710.72;4235417;28;5759;-68
2023/05/23 11:38:27;;;;;;;;;;;;;;;23.49;54.47;96718.50;4226931;28;5696;-68
2023/05/23 11:40:31;;;;;;;;;;;;;;;23.51;54.21;96712.84;4226957;28;5720;-69
2023/05/23 11:42:34;;;;;;;;;;;;;;;23.49;54.64;96712.31;4221560;28;6442;-68
2023/05/23 11:44:37;;;;;;;;;;;;;;;23.47;54.55;96706.41;4232876;27;5802;-69
2023/05/23 11:46:40;;;;;;;;;;;;;;;23.49;54.66;96705.03;4235324;28;5602;-68
2023/05/23 11:48:45;;;;;;;;;;;;;;;23.57;54.46;96708.25;4234856;28;6280;-67
2023/05/23 11:50:51;;;;;;;;;;;;;;;23.57;54.23;96705.53;4234089;28;5594;-68
2023/05/23 11:52:57;;;;;;;;;;;;;;;23.56;53.94;96704.72;4221519;28;5714;-68
2023/05/23 11:55:02;;;;;;;;;;;;;;;23.59;53.87;96706.91;4229780;28;5735;-68
2023/05/23 11:57:06;;;;;;;;;;;;;;;23.62;54.07;96713.63;4225455;28;5803;-68
2023/05/23 11:59:09;;;;;;;;;;;;;;;23.66;53.53;96699.28;4226464;28;5606;-68
2023/05/23 12:01:12;;;;;;;;;;;;;;;23.67;53.59;96695.53;4232444;28;5595;-68
2023/05/23 12:03:15;;;;;;;;;;;;;;;23.70;53.61;96700.34;4221349;28;5623;-67
2023/05/23 12:05:19;;;;;;;;;;;;;;;23.73;53.13;96693.59;4226276;28;5532;-67
2023/05/23 12:07:23;;;;;;;;;;;;;;;23.73;53.45;96694.41;4223540;28;5610;-68
2023/05/23 12:09:26;;;;;;;;;;;;;;;23.78;53.47;96694.38;4223918;28;5699;-67
2023/05/23 12:11:31;;;;;;;;;;;;;;;23.79;53.28;96693.28;4228249;28;5697;-67
2023/05/23 12:13:34;;;;;;;;;;;;;;;23.79;53.12;96697.88;4218036;28;5620;-68
2023/05/23 12:15:39;;;;;;;;;;;;;;;23.79;53.03;96687.91;4217894;28;5677;-68
2023/05/23 12:17:44;;;;;;;;;;;;;;;23.82;52.49;96691.91;4234631;28;5618;-68
2023/05/23 12:19:47;;;;;;;;;;;;;;;23.83;52.45;96698.13;4218439;28;6458;-67
2023/05/23 12:21:50;;;;;;;;;;;;;;;23.84;52.61;96702.44;4224649;28;5101;-67
2023/05/23 12:23:56;;;;;;;;;;;;;;;23.85;52.76;96693.25;4231894;28;6457;-68
2023/05/23 12:25:59;;;;;;;;;;;;;;;23.89;52.59;96694.28;4226851;28;5806;-68
2023/05/23 12:28:02;;;;;;;;;;;;;;;23.91;52.56;96695.66;4229744;28;5606;-67
2023/05/23 12:30:08;;;;;;;;;;;;;;;23.93;52.42;96709.66;4225367;28;5722;-68
2023/05/23 12:32:11;;;;;;;;;;;;;;;23.90;52.31;96704.00;4230683;28;5661;-68
2023/05/23 12:34:17;;;;;;;;;;;;;;;23.87;52.21;96709.97;4220351;28;5788;-68
2023/05/23 12:36:23;;;;;;;;;;;;;;;23.85;52.49;96707.53;4222744;28;5602;-67
2023/05/23 12:38:28;;;;;;;;;;;;;;;23.86;52.53;96700.25;4227796;28;5673;-67
2023/05/23 12:40:33;;;;;;;;;;;;;;;23.96;52.03;96697.50;4222779;28;6426;-67
2023/05/23 12:42:44;;;;;;;;;;;;;;;24.05;51.20;96696.63;4225761;28;5716;-67
2023/05/23 12:44:51;;;;;;;;;;;;;;;24.14;51.44;96694.13;4222647;28;5533;-68
2023/05/23 12:46:54;;;;;;;;;;;;;;;24.18;51.05;96691.66;4233947;28;5665;-68
2023/05/23 12:48:57;;;;;;;;;;;;;;;24.18;50.87;96692.47;4222144;28;5529;-68
2023/05/23 12:51:01;;;;;;;;;;;;;;;24.24;50.93;96693.25;4224653;28;5224;-68
2023/05/23 12:53:04;;;;;;;;;;;;;;;24.34;50.47;96695.88;4226733;28;5785;-67
2023/05/23 12:55:08;;;;;;;;;;;;;;;24.37;50.15;96695.31;4226146;28;5606;-68
2023/05/23 12:57:13;;;;;;;;;;;;;;;24.45;50.40;96680.38;4229327;28;5679;-69
2023/05/23 12:59:16;;;;;;;;;;;;;;;24.49;50.09;96692.25;4231546;28;5605;-70
2023/05/23 13:01:19;;;;;;;;;;;;;;;24.54;49.95;96676.78;4230610;28;5696;-69
2023/05/23 13:03:22;;;;;;;;;;;;;;;24.56;49.85;96676.47;4227919;28;5770;-70
2023/05/23 13:05:26;;;;;;;;;;;;;;;24.62;49.82;96675.34;4228612;28;5703;-69
2023/05/23 13:07:29;;;;;;;;;;;;;;;24.67;49.62;96672.59;4234361;28;5705;-69
2023/05/23 13:09:32;;;;;;;;;;;;;;;24.65;49.33;96666.66;4234436;28;5790;-68
2023/05/23 13:11:35;;;;;;;;;;;;;;;24.64;49.59;96659.66;4234295;28;5988;-68
2023/05/23 13:13:40;;;;;;;;;;;;;;;24.65;49.18;96667.47;4233634;28;5734;-68
2023/05/23 13:15:43;;;;;;;;;;;;;;;24.67;49.48;96667.97;4234343;28;5720;-68
2023/05/23 13:17:47;;;;;;;;;;;;;;;24.72;49.22;96658.22;4233825;28;6451;-68
2023/05/23 13:19:52;;;;;;;;;;;;;;;24.76;48.63;96665.47;4233789;28;5609;-68
2023/05/23 13:21:55;;;;;;;;;;;;;;;24.80;48.46;96660.28;4234258;28;5688;-68
2023/05/23 13:23:58;;;;;;;;;;;;;;;24.81;48.15;96665.44;4230022;28;5609;-67
2023/05/23 13:26:02;;;;;;;;;;;;;;;24.85;48.32;96666.47;4223056;28;5692;-68
2023/05/23 13:28:05;;;;;;;;;;;;;;;24.91;48.19;96657.19;4225610;28;5109;-68
2023/05/23 13:30:11;;;;;;;;;;;;;;;24.93;47.64;96660.44;4229788;28;5594;-67
2023/05/23 13:32:14;;;;;;;;;;;;;;;24.98;47.79;96660.34;4234171;28;5704;-68
2023/05/23 13:34:17;;;;;;;;;;;;;;;24.96;47.71;96657.13;4218605;28;5707;-69
2023/05/23 13:36:20;;;;;;;;;;;;;;;24.96;47.46;96654.44;4222516;28;5590;-68
2023/05/23 13:38:23;;;;;;;;;;;;;;;24.98;47.58;96649.53;4234281;28;6294;-68
2023/05/23 13:40:28;;;;;;;;;;;;;;;24.98;47.20;96660.34;4237391;28;5648;-68
2023/05/23 13:42:32;;;;;;;;;;;;;;;24.98;47.35;96648.72;4220048;27;5768;-68
2023/05/23 13:44:36;;;;;;;;;;;;;;;24.96;46.87;96651.72;4236550;28;5682;-68
2023/05/23 13:46:41;;;;;;;;;;;;;;;24.97;47.09;96644.41;4235666;27;5598;-68
2023/05/23 13:48:44;;;;;;;;;;;;;;;24.97;46.78;96645.22;4220094;28;5620;-69
2023/05/23 13:50:48;;;;;;;;;;;;;;;25.02;46.32;96643.56;4223086;28;5681;-68
2023/05/23 13:52:52;;;;;;;;;;;;;;;25.07;46.58;96632.72;4236639;28;5655;-68
2023/05/23 13:54:56;;;;;;;;;;;;;;;25.09;46.27;96633.22;4236501;28;5671;-68
2023/05/23 13:57:01;;;;;;;;;;;;;;;25.08;46.56;96627.00;4223963;28;5153;-68
2023/05/23 13:59:04;;;;;;;;;;;;;;;25.13;46.33;96639.66;4224749;28;5731;-68
2023/05/23 14:01:07;;;;;;;;;;;;;;;25.14;46.12;96636.69;4224332;28;6339;-68
2023/05/23 14:03:14;;;;;;;;;;;;;;;25.17;46.12;96635.28;4233669;28;5625;-68
2023/05/23 14:05:18;;;;;;;;;;;;;;;25.16;46.21;96630.97;4228081;28;5760;-68
2023/05/23 14:07:21;;;;;;;;;;;;;;;25.14;46.01;96630.44;4232094;27;5593;-68
2023/05/23 14:09:24;;;;;;;;;;;;;;;25.12;46.33;96638.84;4236966;28;5605;-68
2023/05/23 14:11:28;;;;;;;;;;;;;;;25.18;46.04;96632.28;4232742;28;5628;-68
2023/05/23 14:13:31;;;;;;;;;;;;;;;25.24;45.44;96630.31;4219827;28;5699;-69
2023/05/23 14:15:36;;;;;;;;;;;;;;;25.24;45.68;96624.91;4219997;28;5692;-68
2023/05/23 14:17:40;;;;;;;;;;;;;;;25.22;45.42;96627.09;4235190;28;5655;-69
2023/05/23 14:19:46;;;;;;;;;;;;;;;25.21;45.52;96623.59;4236766;28;5655;-69
2023/05/23 14:21:50;;;;;;;;;;;;;;;25.25;45.37;96608.38;4236989;27;5748;-69
2023/05/23 14:23:53;;;;;;;;;;;;;;;25.30;45.24;96626.47;4233958;28;5598;-69
2023/05/23 14:25:56;;;;;;;;;;;;;;;25.33;45.22;96623.16;4230310;28;5602;-68
2023/05/23 14:27:59;;;;;;;;;;;;;;;25.34;45.13;96618.56;4231110;28;5717;-68
2023/05/23 14:30:02;;;;;;;;;;;;;;;25.36;45.14;96616.34;4231448;28;5852;-68
2023/05/23 14:32:06;;;;;;;;;;;;;;;25.40;44.77;96611.97;4233921;28;6157;-68
2023/05/23 14:34:10;;;;;;;;;;;;;;;25.39;45.03;96613.88;4234211;28;5724;-68
2023/05/23 14:36:14;;;;;;;;;;;;;;;25.38;44.71;96612.28;4236112;28;5602;-69
2023/05/23 14:38:17;;;;;;;;;;;;;;;25.39;44.60;96610.38;4233502;28;5787;-69
2023/05/23 14:40:20;;;;;;;;;;;;;;;25.40;44.81;96607.38;4226327;28;5719;-69
2023/05/23 14:42:23;;;;;;;;;;;;;;;25.39;44.54;96610.38;4206035;28;5865;-69
2023/05/23 14:44:26;;;;;;;;;;;;;;;25.36;44.63;96609.03;4223887;28;5725;-69
2023/05/23 14:46:30;;;;;;;;;;;;;;;25.37;44.58;96613.38;4225037;28;5886;-68
2023/05/23 14:48:33;;;;;;;;;;;;;;;25.40;44.31;96606.56;4222456;28;5719;-69
2023/05/23 14:50:36;;;;;;;;;;;;;;;25.40;44.07;96612.78;4203735;28;5694;-68
2023/05/23 14:52:41;;;;;;;;;;;;;;;25.39;44.02;96616.59;4228622;28;6353;-67
2023/05/23 14:54:44;;;;;;;;;;;;;;;25.36;44.10;96610.94;4228486;28;5697;-68
2023/05/23 14:56:47;;;;;;;;;;;;;;;25.33;44.11;96604.22;4223034;28;5697;-67
2023/05/23 14:58:56;;;;;;;;;;;;;;;25.32;44.09;96601.81;4219786;28;5831;-67
2023/05/23 15:00:59;;;;;;;;;;;;;;;25.30;43.91;96606.72;4220620;28;5716;-68
2023/05/23 15:03:03;;;;;;;;;;;;;;;25.28;44.30;96607.00;4225152;28;5666;-67
2023/05/23 15:05:07;;;;;;;;;;;;;;;25.27;43.88;96608.09;4219774;27;6358;-67
2023/05/23 15:07:12;;;;;;;;;;;;;;;25.29;43.74;96603.19;4222619;27;5749;-67
2023/05/23 15:09:17;;;;;;;;;;;;;;;25.29;43.72;96605.09;4222080;28;5629;-67
2023/05/23 15:11:20;;;;;;;;;;;;;;;25.23;43.46;96612.47;4227498;28;5709;-68
2023/05/23 15:13:23;;;;;;;;;;;;;;;25.20;43.33;96599.53;4228913;28;5697;-67
2023/05/23 15:15:32;;;;;;;;;;;;;;;25.17;43.67;96608.25;4228344;28;5677;-67
2023/05/23 15:17:35;;;;;;;;;;;;;;;25.18;43.41;96593.63;4225913;28;5609;-68
2023/05/23 15:19:41;;;;;;;;;;;;;;;25.16;43.71;96602.03;4225774;28;5661;-68
2023/05/23 15:21:45;;;;;;;;;;;;;;;25.14;43.24;96600.69;4229030;28;5614;-67
2023/05/23 15:23:53;;;;;;;;;;;;;;;25.09;43.24;96601.56;4222865;28;5963;-67
2023/05/23 15:25:58;;;;;;;;;;;;;;;25.07;43.50;96597.56;4229948;28;5733;-67
2023/05/23 15:28:00;;;;;;;;;;;;;;;25.04;43.64;96593.53;4223617;28;5726;-68
2023/05/23 15:30:04;;;;;;;;;;;;;;;25.03;43.31;96601.91;4207310;28;5613;-68
2023/05/23 15:32:08;;;;;;;;;;;;;;;25.05;43.37;96607.84;4227124;28;5713;-76
2023/05/23 15:34:11;;;;;;;;;;;;;;;25.09;43.44;96606.97;4230489;28;5689;-77
2023/05/23 15:36:14;;;;;;;;;;;;;;;25.09;43.22;96603.47;4227243;28;5594;-77
2023/05/23 15:38:17;;;;;;;;;;;;;;;25.07;43.37;96608.38;4228227;28;6268;-77
2023/05/23 15:40:22;;;;;;;;;;;;;;;25.05;43.24;96602.44;4225063;28;5677;-77
2023/05/23 15:42:26;;;;;;;;;;;;;;;25.05;43.07;96608.66;4223726;28;5728;-76
2023/05/23 15:44:30;;;;;;;;;;;;;;;25.08;42.81;96602.66;4229619;28;5996;-76
2023/05/23 15:46:35;;;;;;;;;;;;;;;25.08;42.63;96601.88;4227349;28;5696;-76
2023/05/23 15:48:38;;;;;;;;;;;;;;;25.08;42.45;96608.06;4225338;28;5649;-76
2023/05/23 15:50:41;;;;;;;;;;;;;;;25.08;42.40;96602.66;4225244;28;5847;-77
2023/05/23 15:52:45;;;;;;;;;;;;;;;25.11;42.66;96603.97;4221043;28;6323;-77
2023/05/23 15:54:48;;;;;;;;;;;;;;;25.08;42.72;96599.16;4224821;28;5748;-77
2023/05/23 15:56:51;;;;;;;;;;;;;;;25.07;42.28;96602.97;4224277;28;6255;-76
2023/05/23 15:58:56;;;;;;;;;;;;;;;25.05;42.28;96594.34;4229927;28;5626;-76
2023/05/23 16:00:58;;;;;;;;;;;;;;;25.04;42.50;96592.72;4227054;28;6514;-76
2023/05/23 16:03:01;;;;;;;;;;;;;;;25.04;42.15;96590.81;4225624;28;5764;-75
2023/05/23 16:05:05;;;;;;;;;;;;;;;25.07;42.50;96589.44;4226049;28;5648;-76
2023/05/23 16:07:08;;;;;;;;;;;;;;;25.04;42.52;96587.31;4226233;28;5606;-76
2023/05/23 16:09:11;;;;;;;;;;;;;;;25.03;42.11;96581.09;4230259;28;5796;-75
2023/05/23 16:11:14;;;;;;;;;;;;;;;25.04;42.36;96587.31;4208811;28;5716;-75
2023/05/23 16:13:17;;;;;;;;;;;;;;;25.03;41.97;96573.00;4228574;28;5721;-76
2023/05/23 16:15:21;;;;;;;;;;;;;;;25.07;42.14;96586.72;4230392;28;5737;-75
2023/05/23 16:17:24;;;;;;;;;;;;;;;25.07;42.02;96586.72;4227272;28;5753;-75
2023/05/23 16:19:27;;;;;;;;;;;;;;;25.09;41.80;96584.53;4232767;28;5685;-75
2023/05/23 16:21:31;;;;;;;;;;;;;;;25.08;41.97;96593.75;4226984;28;6552;-75
2023/05/23 16:23:34;;;;;;;;;;;;;;;25.06;41.70;96595.94;4231223;28;5722;-75
2023/05/23 16:25:39;;;;;;;;;;;;;;;25.05;41.77;96600.53;4228756;28;5805;-76